sensor_id;sensor_type;location;lat;lon;timestamp;temperature;humidity
15947;DHT22;8072;52.554;7.966;2023-03-14T00:01:24;11.20;99.90
15947;DHT22;8072;52.554;7.966;2023-03-14T00:03:51;11.20;99.90
15947;DHT22;8072;52.554;7.966;2023-03-14T00:06:17;11.20;99.90
15947;DHT22;8072;52.554;7.966;2023-03-14T00:08:44;11.30;99.90
15947;DHT22;8072;52.554;7.966;2023-03-14T00:11:16;11.30;99.90
15947;DHT22;8072;52.554;7.966;2023-03-14T00:13:42;11.40;99.90
15947;DHT22;8072;52.554;7.966;2023-03-14T00:16:11;11.50;99.90
15947;DHT22;8072;52.554;7.966;2023-03-14T00:18:37;11.50;99.90
15947;DHT22;8072;52.554;7.966;2023-03-14T00:21:06;11.60;99.90
15947;DHT22;8072;52.554;7.966;2023-03-14T00:23:35;11.60;99.90
15947;DHT22;8072;52.554;7.966;2023-03-14T00:26:03;11.60;99.90
15947;DHT22;8072;52.554;7.966;2023-03-14T00:28:29;11.70;99.90
15947;DHT22;8072;52.554;7.966;2023-03-14T00:30:55;11.70;99.90
15947;DHT22;8072;52.554;7.966;2023-03-14T00:33:21;11.70;99.90
15947;DHT22;8072;52.554;7.966;2023-03-14T00:35:55;11.80;99.90
15947;DHT22;8072;52.554;7.966;2023-03-14T00:38:21;11.80;99.90
15947;DHT22;8072;52.554;7.966;2023-03-14T00:40:46;11.90;99.90
15947;DHT22;8072;52.554;7.966;2023-03-14T00:43:12;11.90;99.90
15947;DHT22;8072;52.554;7.966;2023-03-14T00:45:38;11.90;99.90
15947;DHT22;8072;52.554;7.966;2023-03-14T00:48:04;11.90;99.90
15947;DHT22;8072;52.554;7.966;2023-03-14T00:50:29;11.80;99.90
15947;DHT22;8072;52.554;7.966;2023-03-14T00:52:55;11.90;99.90
15947;DHT22;8072;52.554;7.966;2023-03-14T00:55:21;11.90;99.90
15947;DHT22;8072;52.554;7.966;2023-03-14T00:57:47;11.90;99.90
15947;DHT22;8072;52.554;7.966;2023-03-14T01:00:13;11.90;99.90
15947;DHT22;8072;52.554;7.966;2023-03-14T01:02:39;11.90;99.90
15947;DHT22;8072;52.554;7.966;2023-03-14T01:05:05;11.90;99.90
15947;DHT22;8072;52.554;7.966;2023-03-14T01:07:30;11.90;99.90
15947;DHT22;8072;52.554;7.966;2023-03-14T01:09:56;11.90;99.90
15947;DHT22;8072;52.554;7.966;2023-03-14T01:12:22;11.90;99.90
15947;DHT22;8072;52.554;7.966;2023-03-14T01:14:48;11.80;99.90
15947;DHT22;8072;52.554;7.966;2023-03-14T01:17:13;11.70;99.90
15947;DHT22;8072;52.554;7.966;2023-03-14T01:19:39;11.70;99.90
15947;DHT22;8072;52.554;7.966;2023-03-14T01:22:05;11.60;99.90
15947;DHT22;8072;52.554;7.966;2023-03-14T01:24:31;11.60;99.90
15947;DHT22;8072;52.554;7.966;2023-03-14T01:26:56;11.60;99.90
15947;DHT22;8072;52.554;7.966;2023-03-14T01:29:22;11.60;99.90
15947;DHT22;8072;52.554;7.966;2023-03-14T01:31:48;11.60;99.90
15947;DHT22;8072;52.554;7.966;2023-03-14T01:34:13;11.50;99.90
15947;DHT22;8072;52.554;7.966;2023-03-14T01:36:39;11.50;99.90
15947;DHT22;8072;52.554;7.966;2023-03-14T01:39:05;11.60;99.90
15947;DHT22;8072;52.554;7.966;2023-03-14T01:41:32;11.50;99.90
15947;DHT22;8072;52.554;7.966;2023-03-14T01:43:58;11.50;99.90
15947;DHT22;8072;52.554;7.966;2023-03-14T01:46:43;11.40;99.90
15947;DHT22;8072;52.554;7.966;2023-03-14T01:49:30;11.40;99.90
15947;DHT22;8072;52.554;7.966;2023-03-14T01:52:04;11.40;99.90
15947;DHT22;8072;52.554;7.966;2023-03-14T01:54:32;11.40;99.90
15947;DHT22;8072;52.554;7.966;2023-03-14T01:57:10;11.50;99.90
15947;DHT22;8072;52.554;7.966;2023-03-14T01:59:37;11.40;99.90
15947;DHT22;8072;52.554;7.966;2023-03-14T02:02:07;11.50;99.90
15947;DHT22;8072;52.554;7.966;2023-03-14T02:04:36;11.50;99.90
15947;DHT22;8072;52.554;7.966;2023-03-14T02:07:22;11.50;99.90
15947;DHT22;8072;52.554;7.966;2023-03-14T02:09:50;11.50;99.90
15947;DHT22;8072;52.554;7.966;2023-03-14T02:12:18;11.50;99.90
15947;DHT22;8072;52.554;7.966;2023-03-14T02:14:45;11.50;99.90
15947;DHT22;8072;52.554;7.966;2023-03-14T02:17:15;11.60;99.90
15947;DHT22;8072;52.554;7.966;2023-03-14T02:19:54;11.60;99.90
15947;DHT22;8072;52.554;7.966;2023-03-14T02:22:23;11.50;99.90
15947;DHT22;8072;52.554;7.966;2023-03-14T02:27:21;11.50;99.90
15947;DHT22;8072;52.554;7.966;2023-03-14T02:32:20;11.50;99.90
15947;DHT22;8072;52.554;7.966;2023-03-14T02:34:51;11.60;99.90
15947;DHT22;8072;52.554;7.966;2023-03-14T02:37:19;11.50;99.90
15947;DHT22;8072;52.554;7.966;2023-03-14T02:39:46;11.40;99.90
15947;DHT22;8072;52.554;7.966;2023-03-14T02:42:14;11.30;99.90
15947;DHT22;8072;52.554;7.966;2023-03-14T02:45:00;11.20;99.90
15947;DHT22;8072;52.554;7.966;2023-03-14T02:47:29;11.00;99.90
15947;DHT22;8072;52.554;7.966;2023-03-14T02:50:05;10.90;99.90
15947;DHT22;8072;52.554;7.966;2023-03-14T02:52:32;10.80;99.90
15947;DHT22;8072;52.554;7.966;2023-03-14T02:54:57;10.80;99.90
15947;DHT22;8072;52.554;7.966;2023-03-14T02:57:23;10.70;99.90
15947;DHT22;8072;52.554;7.966;2023-03-14T02:59:49;10.80;99.90
15947;DHT22;8072;52.554;7.966;2023-03-14T03:02:15;10.80;99.90
15947;DHT22;8072;52.554;7.966;2023-03-14T03:04:41;10.80;99.90
15947;DHT22;8072;52.554;7.966;2023-03-14T03:07:07;10.80;99.90
15947;DHT22;8072;52.554;7.966;2023-03-14T03:09:33;10.90;99.90
15947;DHT22;8072;52.554;7.966;2023-03-14T03:11:59;10.90;99.90
15947;DHT22;8072;52.554;7.966;2023-03-14T03:14:25;10.90;99.90
15947;DHT22;8072;52.554;7.966;2023-03-14T03:16:51;10.90;99.90
15947;DHT22;8072;52.554;7.966;2023-03-14T03:19:16;10.80;99.90
15947;DHT22;8072;52.554;7.966;2023-03-14T03:21:44;10.80;99.90
15947;DHT22;8072;52.554;7.966;2023-03-14T03:24:09;10.80;99.90
15947;DHT22;8072;52.554;7.966;2023-03-14T03:26:36;10.70;99.90
15947;DHT22;8072;52.554;7.966;2023-03-14T03:29:02;10.70;99.90
15947;DHT22;8072;52.554;7.966;2023-03-14T03:31:28;10.70;99.90
15947;DHT22;8072;52.554;7.966;2023-03-14T03:33:54;10.70;99.90
15947;DHT22;8072;52.554;7.966;2023-03-14T03:36:24;10.70;99.90
15947;DHT22;8072;52.554;7.966;2023-03-14T03:38:50;10.60;99.90
15947;DHT22;8072;52.554;7.966;2023-03-14T03:41:16;10.60;99.90
15947;DHT22;8072;52.554;7.966;2023-03-14T03:43:42;10.60;99.90
15947;DHT22;8072;52.554;7.966;2023-03-14T03:46:08;10.70;99.90
15947;DHT22;8072;52.554;7.966;2023-03-14T03:48:34;10.70;99.90
15947;DHT22;8072;52.554;7.966;2023-03-14T03:51:00;10.60;99.90
15947;DHT22;8072;52.554;7.966;2023-03-14T03:53:27;10.60;99.90
15947;DHT22;8072;52.554;7.966;2023-03-14T03:55:52;10.60;99.90
15947;DHT22;8072;52.554;7.966;2023-03-14T03:58:18;10.60;99.90
15947;DHT22;8072;52.554;7.966;2023-03-14T04:00:44;10.60;99.90
15947;DHT22;8072;52.554;7.966;2023-03-14T04:03:09;10.60;99.90
15947;DHT22;8072;52.554;7.966;2023-03-14T04:05:35;10.60;99.90
15947;DHT22;8072;52.554;7.966;2023-03-14T04:08:02;10.60;99.90
15947;DHT22;8072;52.554;7.966;2023-03-14T04:10:28;10.60;99.90
15947;DHT22;8072;52.554;7.966;2023-03-14T04:12:55;10.60;99.90
15947;DHT22;8072;52.554;7.966;2023-03-14T04:15:20;10.50;99.90
15947;DHT22;8072;52.554;7.966;2023-03-14T04:17:46;10.40;99.90
15947;DHT22;8072;52.554;7.966;2023-03-14T04:20:12;10.20;99.90
15947;DHT22;8072;52.554;7.966;2023-03-14T04:22:39;10.10;99.90
15947;DHT22;8072;52.554;7.966;2023-03-14T04:25:05;10.00;99.90
15947;DHT22;8072;52.554;7.966;2023-03-14T04:27:31;10.00;99.90
15947;DHT22;8072;52.554;7.966;2023-03-14T04:29:57;10.00;99.90
15947;DHT22;8072;52.554;7.966;2023-03-14T04:32:23;9.80;99.90
15947;DHT22;8072;52.554;7.966;2023-03-14T04:34:49;9.70;99.90
15947;DHT22;8072;52.554;7.966;2023-03-14T04:37:15;9.50;99.90
15947;DHT22;8072;52.554;7.966;2023-03-14T04:39:41;9.40;99.90
15947;DHT22;8072;52.554;7.966;2023-03-14T04:42:07;9.30;99.90
15947;DHT22;8072;52.554;7.966;2023-03-14T04:44:32;9.30;99.90
15947;DHT22;8072;52.554;7.966;2023-03-14T04:46:58;9.30;99.90
15947;DHT22;8072;52.554;7.966;2023-03-14T04:49:24;9.20;99.90
15947;DHT22;8072;52.554;7.966;2023-03-14T04:51:50;9.20;99.90
15947;DHT22;8072;52.554;7.966;2023-03-14T04:54:18;9.10;99.90
15947;DHT22;8072;52.554;7.966;2023-03-14T04:56:44;9.10;99.90
15947;DHT22;8072;52.554;7.966;2023-03-14T04:59:10;9.10;99.90
15947;DHT22;8072;52.554;7.966;2023-03-14T05:01:35;9.10;99.90
15947;DHT22;8072;52.554;7.966;2023-03-14T05:04:01;9.10;99.90
15947;DHT22;8072;52.554;7.966;2023-03-14T05:06:27;9.10;99.90
15947;DHT22;8072;52.554;7.966;2023-03-14T05:08:52;9.10;99.90
15947;DHT22;8072;52.554;7.966;2023-03-14T05:11:18;9.10;99.90
15947;DHT22;8072;52.554;7.966;2023-03-14T05:13:44;9.10;99.90
15947;DHT22;8072;52.554;7.966;2023-03-14T05:16:11;9.10;99.90
15947;DHT22;8072;52.554;7.966;2023-03-14T05:18:37;9.10;99.90
15947;DHT22;8072;52.554;7.966;2023-03-14T05:21:03;9.20;99.90
15947;DHT22;8072;52.554;7.966;2023-03-14T05:23:29;9.10;99.90
15947;DHT22;8072;52.554;7.966;2023-03-14T05:25:55;9.10;99.90
15947;DHT22;8072;52.554;7.966;2023-03-14T05:28:21;9.10;99.90
15947;DHT22;8072;52.554;7.966;2023-03-14T05:30:47;9.10;99.90
15947;DHT22;8072;52.554;7.966;2023-03-14T05:33:13;9.10;99.90
15947;DHT22;8072;52.554;7.966;2023-03-14T05:35:39;9.10;99.90
15947;DHT22;8072;52.554;7.966;2023-03-14T05:38:05;9.10;99.90
15947;DHT22;8072;52.554;7.966;2023-03-14T05:40:31;9.10;99.90
15947;DHT22;8072;52.554;7.966;2023-03-14T05:42:56;9.10;99.90
15947;DHT22;8072;52.554;7.966;2023-03-14T05:45:22;9.10;99.90
15947;DHT22;8072;52.554;7.966;2023-03-14T05:47:48;9.10;99.90
15947;DHT22;8072;52.554;7.966;2023-03-14T05:50:13;9.10;99.90
15947;DHT22;8072;52.554;7.966;2023-03-14T05:52:39;9.10;99.90
15947;DHT22;8072;52.554;7.966;2023-03-14T05:55:05;9.10;99.90
15947;DHT22;8072;52.554;7.966;2023-03-14T05:57:31;9.10;99.90
15947;DHT22;8072;52.554;7.966;2023-03-14T05:59:57;9.10;99.90
15947;DHT22;8072;52.554;7.966;2023-03-14T06:02:22;9.10;99.90
15947;DHT22;8072;52.554;7.966;2023-03-14T06:04:48;9.00;99.90
15947;DHT22;8072;52.554;7.966;2023-03-14T06:07:14;9.10;99.90
15947;DHT22;8072;52.554;7.966;2023-03-14T06:09:39;9.10;99.90
15947;DHT22;8072;52.554;7.966;2023-03-14T06:12:05;9.10;99.90
15947;DHT22;8072;52.554;7.966;2023-03-14T06:14:31;9.10;99.90
15947;DHT22;8072;52.554;7.966;2023-03-14T06:16:57;9.10;99.90
15947;DHT22;8072;52.554;7.966;2023-03-14T06:19:25;9.10;99.90
15947;DHT22;8072;52.554;7.966;2023-03-14T06:21:51;9.10;99.90
15947;DHT22;8072;52.554;7.966;2023-03-14T06:24:16;9.10;99.90
15947;DHT22;8072;52.554;7.966;2023-03-14T06:26:42;9.10;99.90
15947;DHT22;8072;52.554;7.966;2023-03-14T06:29:08;9.10;99.90
15947;DHT22;8072;52.554;7.966;2023-03-14T06:31:34;9.20;99.90
15947;DHT22;8072;52.554;7.966;2023-03-14T06:34:00;9.30;99.90
15947;DHT22;8072;52.554;7.966;2023-03-14T06:36:26;9.30;99.90
15947;DHT22;8072;52.554;7.966;2023-03-14T06:38:52;9.40;99.90
15947;DHT22;8072;52.554;7.966;2023-03-14T06:41:18;9.40;99.90
15947;DHT22;8072;52.554;7.966;2023-03-14T06:43:43;9.50;99.90
15947;DHT22;8072;52.554;7.966;2023-03-14T06:46:09;9.50;99.90
15947;DHT22;8072;52.554;7.966;2023-03-14T06:48:35;9.50;99.90
15947;DHT22;8072;52.554;7.966;2023-03-14T06:51:01;9.50;99.90
15947;DHT22;8072;52.554;7.966;2023-03-14T06:53:26;9.50;99.90
15947;DHT22;8072;52.554;7.966;2023-03-14T06:55:52;9.60;99.90
15947;DHT22;8072;52.554;7.966;2023-03-14T06:58:18;9.60;99.90
15947;DHT22;8072;52.554;7.966;2023-03-14T07:00:44;9.60;99.90
15947;DHT22;8072;52.554;7.966;2023-03-14T07:03:10;9.70;99.90
15947;DHT22;8072;52.554;7.966;2023-03-14T07:05:36;9.70;99.90
15947;DHT22;8072;52.554;7.966;2023-03-14T07:08:04;9.80;99.90
15947;DHT22;8072;52.554;7.966;2023-03-14T07:10:30;9.80;99.90
15947;DHT22;8072;52.554;7.966;2023-03-14T07:12:55;9.80;99.90
15947;DHT22;8072;52.554;7.966;2023-03-14T07:15:21;9.90;99.90
15947;DHT22;8072;52.554;7.966;2023-03-14T07:17:47;9.90;99.90
15947;DHT22;8072;52.554;7.966;2023-03-14T07:20:13;10.00;99.90
15947;DHT22;8072;52.554;7.966;2023-03-14T07:22:39;10.00;99.90
15947;DHT22;8072;52.554;7.966;2023-03-14T07:25:05;10.00;99.90
15947;DHT22;8072;52.554;7.966;2023-03-14T07:27:31;10.00;99.90
15947;DHT22;8072;52.554;7.966;2023-03-14T07:29:57;10.00;99.90
15947;DHT22;8072;52.554;7.966;2023-03-14T07:32:23;10.00;99.90
15947;DHT22;8072;52.554;7.966;2023-03-14T07:34:48;10.10;99.90
15947;DHT22;8072;52.554;7.966;2023-03-14T07:37:14;10.10;99.90
15947;DHT22;8072;52.554;7.966;2023-03-14T07:39:40;10.10;99.90
15947;DHT22;8072;52.554;7.966;2023-03-14T07:42:06;10.20;99.90
15947;DHT22;8072;52.554;7.966;2023-03-14T07:44:32;10.20;99.90
15947;DHT22;8072;52.554;7.966;2023-03-14T07:46:58;10.30;99.90
15947;DHT22;8072;52.554;7.966;2023-03-14T07:49:23;10.30;99.90
15947;DHT22;8072;52.554;7.966;2023-03-14T07:51:49;10.30;99.90
15947;DHT22;8072;52.554;7.966;2023-03-14T07:54:16;10.30;99.90
15947;DHT22;8072;52.554;7.966;2023-03-14T07:56:41;10.20;99.90
15947;DHT22;8072;52.554;7.966;2023-03-14T07:59:07;10.30;99.90
15947;DHT22;8072;52.554;7.966;2023-03-14T08:01:33;10.30;99.90
15947;DHT22;8072;52.554;7.966;2023-03-14T08:03:59;10.30;99.90
15947;DHT22;8072;52.554;7.966;2023-03-14T08:06:24;10.30;99.90
15947;DHT22;8072;52.554;7.966;2023-03-14T08:08:50;10.30;99.90
15947;DHT22;8072;52.554;7.966;2023-03-14T08:11:16;10.30;99.90
15947;DHT22;8072;52.554;7.966;2023-03-14T08:13:42;10.30;99.90
15947;DHT22;8072;52.554;7.966;2023-03-14T08:16:09;10.30;99.90
15947;DHT22;8072;52.554;7.966;2023-03-14T08:18:34;10.30;99.90
15947;DHT22;8072;52.554;7.966;2023-03-14T08:21:00;10.20;99.90
15947;DHT22;8072;52.554;7.966;2023-03-14T08:23:26;10.10;99.90
15947;DHT22;8072;52.554;7.966;2023-03-14T08:25:52;10.10;99.90
15947;DHT22;8072;52.554;7.966;2023-03-14T08:28:18;10.00;99.90
15947;DHT22;8072;52.554;7.966;2023-03-14T08:30:44;10.00;99.90
15947;DHT22;8072;52.554;7.966;2023-03-14T08:33:10;10.00;99.90
15947;DHT22;8072;52.554;7.966;2023-03-14T08:35:37;10.00;99.90
15947;DHT22;8072;52.554;7.966;2023-03-14T08:38:03;10.00;99.90
15947;DHT22;8072;52.554;7.966;2023-03-14T08:40:29;10.00;99.90
15947;DHT22;8072;52.554;7.966;2023-03-14T08:42:55;10.00;99.90
15947;DHT22;8072;52.554;7.966;2023-03-14T08:45:20;10.00;99.90
15947;DHT22;8072;52.554;7.966;2023-03-14T08:47:47;10.10;99.90
15947;DHT22;8072;52.554;7.966;2023-03-14T08:50:13;10.10;99.90
15947;DHT22;8072;52.554;7.966;2023-03-14T08:52:39;10.10;99.90
15947;DHT22;8072;52.554;7.966;2023-03-14T08:55:09;10.10;99.90
15947;DHT22;8072;52.554;7.966;2023-03-14T08:57:35;10.20;99.90
15947;DHT22;8072;52.554;7.966;2023-03-14T09:00:03;10.20;99.90
15947;DHT22;8072;52.554;7.966;2023-03-14T09:02:31;10.10;99.90
15947;DHT22;8072;52.554;7.966;2023-03-14T09:04:57;10.10;99.90
15947;DHT22;8072;52.554;7.966;2023-03-14T09:07:22;10.10;99.90
15947;DHT22;8072;52.554;7.966;2023-03-14T09:09:48;10.00;99.90
15947;DHT22;8072;52.554;7.966;2023-03-14T09:12:14;10.00;99.90
15947;DHT22;8072;52.554;7.966;2023-03-14T09:14:40;10.10;99.90
15947;DHT22;8072;52.554;7.966;2023-03-14T09:17:05;10.00;99.90
15947;DHT22;8072;52.554;7.966;2023-03-14T09:19:31;10.00;99.90
15947;DHT22;8072;52.554;7.966;2023-03-14T09:21:57;10.00;99.90
15947;DHT22;8072;52.554;7.966;2023-03-14T09:24:23;10.10;99.90
15947;DHT22;8072;52.554;7.966;2023-03-14T09:26:49;9.80;99.90
15947;DHT22;8072;52.554;7.966;2023-03-14T09:29:14;9.10;99.90
15947;DHT22;8072;52.554;7.966;2023-03-14T09:31:40;8.80;99.90
15947;DHT22;8072;52.554;7.966;2023-03-14T09:34:06;8.50;99.90
15947;DHT22;8072;52.554;7.966;2023-03-14T09:36:32;8.30;99.90
15947;DHT22;8072;52.554;7.966;2023-03-14T09:38:57;8.10;99.90
15947;DHT22;8072;52.554;7.966;2023-03-14T09:44:05;7.80;99.90
15947;DHT22;8072;52.554;7.966;2023-03-14T09:46:36;7.60;99.90
15947;DHT22;8072;52.554;7.966;2023-03-14T09:49:18;7.50;99.90
15947;DHT22;8072;52.554;7.966;2023-03-14T09:51:47;7.20;99.90
15947;DHT22;8072;52.554;7.966;2023-03-14T09:56:58;6.80;99.90
15947;DHT22;8072;52.554;7.966;2023-03-14T09:59:25;6.70;99.90
15947;DHT22;8072;52.554;7.966;2023-03-14T10:01:52;6.50;99.90
15947;DHT22;8072;52.554;7.966;2023-03-14T10:04:21;6.40;99.90
15947;DHT22;8072;52.554;7.966;2023-03-14T10:06:48;6.10;99.90
15947;DHT22;8072;52.554;7.966;2023-03-14T10:09:23;5.90;99.90
15947;DHT22;8072;52.554;7.966;2023-03-14T10:11:56;5.70;99.90
15947;DHT22;8072;52.554;7.966;2023-03-14T10:14:33;5.30;99.90
15947;DHT22;8072;52.554;7.966;2023-03-14T10:17:11;5.20;99.90
15947;DHT22;8072;52.554;7.966;2023-03-14T10:19:51;5.00;99.90
15947;DHT22;8072;52.554;7.966;2023-03-14T10:22:17;5.00;99.90
15947;DHT22;8072;52.554;7.966;2023-03-14T10:24:51;4.80;99.90
15947;DHT22;8072;52.554;7.966;2023-03-14T10:27:23;4.80;99.90
15947;DHT22;8072;52.554;7.966;2023-03-14T10:30:07;4.70;99.90
15947;DHT22;8072;52.554;7.966;2023-03-14T10:32:38;4.70;99.90
15947;DHT22;8072;52.554;7.966;2023-03-14T10:37:57;4.70;99.90
15947;DHT22;8072;52.554;7.966;2023-03-14T10:40:40;4.70;99.90
15947;DHT22;8072;52.554;7.966;2023-03-14T10:43:13;4.70;99.90
15947;DHT22;8072;52.554;7.966;2023-03-14T10:45:42;4.70;99.90
15947;DHT22;8072;52.554;7.966;2023-03-14T10:51:02;4.70;99.90
15947;DHT22;8072;52.554;7.966;2023-03-14T10:53:34;4.80;99.90
15947;DHT22;8072;52.554;7.966;2023-03-14T10:56:04;4.80;99.90
15947;DHT22;8072;52.554;7.966;2023-03-14T10:58:35;4.90;99.90
15947;DHT22;8072;52.554;7.966;2023-03-14T11:01:14;5.00;99.90
15947;DHT22;8072;52.554;7.966;2023-03-14T11:04:21;5.00;99.90
15947;DHT22;8072;52.554;7.966;2023-03-14T11:07:18;5.00;99.90
15947;DHT22;8072;52.554;7.966;2023-03-14T11:15:10;5.20;99.90
15947;DHT22;8072;52.554;7.966;2023-03-14T11:20:27;5.40;99.90
15947;DHT22;8072;52.554;7.966;2023-03-14T11:23:08;5.60;99.90
15947;DHT22;8072;52.554;7.966;2023-03-14T11:25:40;5.60;99.90
15947;DHT22;8072;52.554;7.966;2023-03-14T11:30:55;5.80;99.90
15947;DHT22;8072;52.554;7.966;2023-03-14T11:33:50;5.90;99.90
15947;DHT22;8072;52.554;7.966;2023-03-14T11:36:49;6.00;99.90
15947;DHT22;8072;52.554;7.966;2023-03-14T11:39:18;6.00;99.90
15947;DHT22;8072;52.554;7.966;2023-03-14T11:41:51;6.00;99.90
15947;DHT22;8072;52.554;7.966;2023-03-14T11:47:17;6.20;99.90
15947;DHT22;8072;52.554;7.966;2023-03-14T11:49:57;6.30;99.90
15947;DHT22;8072;52.554;7.966;2023-03-14T11:52:37;6.50;99.90
15947;DHT22;8072;52.554;7.966;2023-03-14T11:57:40;6.60;99.90
15947;DHT22;8072;52.554;7.966;2023-03-14T12:00:21;6.60;99.90
15947;DHT22;8072;52.554;7.966;2023-03-14T12:13:58;5.90;99.90
15947;DHT22;8072;52.554;7.966;2023-03-14T12:16:34;5.80;99.90
15947;DHT22;8072;52.554;7.966;2023-03-14T12:19:27;5.90;99.90
15947;DHT22;8072;52.554;7.966;2023-03-14T12:21:57;5.90;99.90
15947;DHT22;8072;52.554;7.966;2023-03-14T12:24:30;6.10;99.90
15947;DHT22;8072;52.554;7.966;2023-03-14T12:26:59;6.10;99.90
15947;DHT22;8072;52.554;7.966;2023-03-14T12:29:25;6.20;99.90
15947;DHT22;8072;52.554;7.966;2023-03-14T12:34:31;6.30;99.90
15947;DHT22;8072;52.554;7.966;2023-03-14T12:37:10;6.30;99.90
15947;DHT22;8072;52.554;7.966;2023-03-14T12:39:58;6.40;99.90
15947;DHT22;8072;52.554;7.966;2023-03-14T12:47:44;6.60;99.90
15947;DHT22;8072;52.554;7.966;2023-03-14T12:50:18;6.60;99.90
15947;DHT22;8072;52.554;7.966;2023-03-14T12:58:44;6.60;99.90
15947;DHT22;8072;52.554;7.966;2023-03-14T13:01:19;6.60;99.90
15947;DHT22;8072;52.554;7.966;2023-03-14T13:03:56;6.60;99.90
15947;DHT22;8072;52.554;7.966;2023-03-14T13:06:51;6.60;99.90
15947;DHT22;8072;52.554;7.966;2023-03-14T13:12:10;6.50;99.90
15947;DHT22;8072;52.554;7.966;2023-03-14T13:14:40;6.50;99.90
15947;DHT22;8072;52.554;7.966;2023-03-14T13:17:11;6.40;99.90
15947;DHT22;8072;52.554;7.966;2023-03-14T13:19:38;6.30;99.90
15947;DHT22;8072;52.554;7.966;2023-03-14T13:22:06;6.30;99.90
15947;DHT22;8072;52.554;7.966;2023-03-14T13:24:39;6.30;99.90
15947;DHT22;8072;52.554;7.966;2023-03-14T13:27:17;6.50;99.90
15947;DHT22;8072;52.554;7.966;2023-03-14T13:29:44;6.70;99.90
15947;DHT22;8072;52.554;7.966;2023-03-14T13:32:22;6.80;99.90
15947;DHT22;8072;52.554;7.966;2023-03-14T13:34:51;6.80;99.90
15947;DHT22;8072;52.554;7.966;2023-03-14T13:37:21;6.80;99.90
15947;DHT22;8072;52.554;7.966;2023-03-14T13:39:55;6.70;99.90
15947;DHT22;8072;52.554;7.966;2023-03-14T13:42:25;6.70;99.90
15947;DHT22;8072;52.554;7.966;2023-03-14T13:44:53;6.70;99.90
15947;DHT22;8072;52.554;7.966;2023-03-14T13:47:21;6.60;99.90
15947;DHT22;8072;52.554;7.966;2023-03-14T13:49:48;6.60;99.90
15947;DHT22;8072;52.554;7.966;2023-03-14T13:52:43;6.70;99.90
15947;DHT22;8072;52.554;7.966;2023-03-14T13:55:17;6.80;99.90
15947;DHT22;8072;52.554;7.966;2023-03-14T13:57:49;7.10;99.90
15947;DHT22;8072;52.554;7.966;2023-03-14T14:00:25;7.20;99.90
15947;DHT22;8072;52.554;7.966;2023-03-14T14:02:56;7.20;99.90
15947;DHT22;8072;52.554;7.966;2023-03-14T14:05:25;7.20;99.90
15947;DHT22;8072;52.554;7.966;2023-03-14T14:07:51;7.30;99.90
15947;DHT22;8072;52.554;7.966;2023-03-14T14:10:18;7.30;99.90
15947;DHT22;8072;52.554;7.966;2023-03-14T14:13:14;7.20;99.90
15947;DHT22;8072;52.554;7.966;2023-03-14T14:15:46;7.20;99.90
15947;DHT22;8072;52.554;7.966;2023-03-14T14:18:16;7.10;99.90
15947;DHT22;8072;52.554;7.966;2023-03-14T14:20:45;7.10;99.90
15947;DHT22;8072;52.554;7.966;2023-03-14T14:23:14;7.00;99.90
15947;DHT22;8072;52.554;7.966;2023-03-14T14:25:40;7.00;99.90
15947;DHT22;8072;52.554;7.966;2023-03-14T14:30:41;6.90;99.90
15947;DHT22;8072;52.554;7.966;2023-03-14T14:33:20;6.90;99.90
15947;DHT22;8072;52.554;7.966;2023-03-14T14:36:04;6.80;99.90
15947;DHT22;8072;52.554;7.966;2023-03-14T14:38:30;6.80;99.90
15947;DHT22;8072;52.554;7.966;2023-03-14T14:41:00;6.80;99.90
15947;DHT22;8072;52.554;7.966;2023-03-14T14:43:36;7.10;99.90
15947;DHT22;8072;52.554;7.966;2023-03-14T14:46:06;7.30;99.90
15947;DHT22;8072;52.554;7.966;2023-03-14T14:48:37;7.30;99.90
15947;DHT22;8072;52.554;7.966;2023-03-14T14:51:06;7.30;99.90
15947;DHT22;8072;52.554;7.966;2023-03-14T14:53:43;7.20;99.90
15947;DHT22;8072;52.554;7.966;2023-03-14T14:56:17;7.00;99.90
15947;DHT22;8072;52.554;7.966;2023-03-14T14:58:46;7.00;99.90
15947;DHT22;8072;52.554;7.966;2023-03-14T15:01:16;6.80;99.90
15947;DHT22;8072;52.554;7.966;2023-03-14T15:03:47;6.70;99.90
15947;DHT22;8072;52.554;7.966;2023-03-14T15:06:15;6.70;99.90
15947;DHT22;8072;52.554;7.966;2023-03-14T15:08:44;6.70;99.90
15947;DHT22;8072;52.554;7.966;2023-03-14T15:11:22;6.80;99.90
15947;DHT22;8072;52.554;7.966;2023-03-14T15:13:48;6.80;99.90
15947;DHT22;8072;52.554;7.966;2023-03-14T15:16:18;6.80;99.90
15947;DHT22;8072;52.554;7.966;2023-03-14T15:18:50;6.80;99.90
15947;DHT22;8072;52.554;7.966;2023-03-14T15:21:17;6.70;99.90
15947;DHT22;8072;52.554;7.966;2023-03-14T15:23:43;6.80;99.90
15947;DHT22;8072;52.554;7.966;2023-03-14T15:26:14;6.70;99.90
15947;DHT22;8072;52.554;7.966;2023-03-14T15:28:40;6.70;99.90
15947;DHT22;8072;52.554;7.966;2023-03-14T15:31:10;6.70;99.90
15947;DHT22;8072;52.554;7.966;2023-03-14T15:33:36;6.80;99.90
15947;DHT22;8072;52.554;7.966;2023-03-14T15:36:03;6.90;99.90
15947;DHT22;8072;52.554;7.966;2023-03-14T15:38:29;6.90;99.90
15947;DHT22;8072;52.554;7.966;2023-03-14T15:40:54;7.00;99.90
15947;DHT22;8072;52.554;7.966;2023-03-14T15:43:20;7.10;99.90
15947;DHT22;8072;52.554;7.966;2023-03-14T15:45:46;7.10;99.90
15947;DHT22;8072;52.554;7.966;2023-03-14T15:48:15;7.20;99.90
15947;DHT22;8072;52.554;7.966;2023-03-14T15:50:42;7.20;99.90
15947;DHT22;8072;52.554;7.966;2023-03-14T15:53:08;7.00;99.90
15947;DHT22;8072;52.554;7.966;2023-03-14T15:55:33;7.00;99.90
15947;DHT22;8072;52.554;7.966;2023-03-14T15:57:59;6.80;99.90
15947;DHT22;8072;52.554;7.966;2023-03-14T16:00:26;6.70;99.90
15947;DHT22;8072;52.554;7.966;2023-03-14T16:02:52;6.70;99.90
15947;DHT22;8072;52.554;7.966;2023-03-14T16:05:18;6.70;99.90
15947;DHT22;8072;52.554;7.966;2023-03-14T16:07:46;6.70;99.90
15947;DHT22;8072;52.554;7.966;2023-03-14T16:10:13;6.60;99.90
15947;DHT22;8072;52.554;7.966;2023-03-14T16:12:40;6.50;99.90
15947;DHT22;8072;52.554;7.966;2023-03-14T16:15:07;6.50;99.90
15947;DHT22;8072;52.554;7.966;2023-03-14T16:17:33;6.50;99.90
15947;DHT22;8072;52.554;7.966;2023-03-14T16:19:59;6.50;99.90
15947;DHT22;8072;52.554;7.966;2023-03-14T16:22:25;6.40;99.90
15947;DHT22;8072;52.554;7.966;2023-03-14T16:24:51;6.30;99.90
15947;DHT22;8072;52.554;7.966;2023-03-14T16:27:17;6.30;99.90
15947;DHT22;8072;52.554;7.966;2023-03-14T16:29:42;6.30;99.90
15947;DHT22;8072;52.554;7.966;2023-03-14T16:32:09;6.30;99.90
15947;DHT22;8072;52.554;7.966;2023-03-14T16:34:38;6.30;99.90
15947;DHT22;8072;52.554;7.966;2023-03-14T16:37:04;6.20;99.90
15947;DHT22;8072;52.554;7.966;2023-03-14T16:39:30;6.30;99.90
15947;DHT22;8072;52.554;7.966;2023-03-14T16:41:57;6.30;99.90
15947;DHT22;8072;52.554;7.966;2023-03-14T16:44:23;6.40;99.90
15947;DHT22;8072;52.554;7.966;2023-03-14T16:46:49;6.30;99.90
15947;DHT22;8072;52.554;7.966;2023-03-14T16:49:15;6.30;99.90
15947;DHT22;8072;52.554;7.966;2023-03-14T16:51:41;6.30;99.90
15947;DHT22;8072;52.554;7.966;2023-03-14T16:54:07;6.30;99.90
15947;DHT22;8072;52.554;7.966;2023-03-14T16:56:34;6.20;99.90
15947;DHT22;8072;52.554;7.966;2023-03-14T16:58:59;6.20;99.90
15947;DHT22;8072;52.554;7.966;2023-03-14T17:01:25;6.20;99.90
15947;DHT22;8072;52.554;7.966;2023-03-14T17:03:51;6.20;99.90
15947;DHT22;8072;52.554;7.966;2023-03-14T17:06:20;6.10;99.90